Time;durP1;ratioP1;P1;durP2;ratioP2;P2;SDS_P1;SDS_P2;PMS_P1;PMS_P2;Temp;Humidity;BMP_temperature;BMP_pressure;BME280_temperature;BME280_humidity;BME280_pressure;Samples;Min_cycle;Max_cycle;Signal;HPM_P1;HPM_P2
2021/03/11 00:02:06;;;;;;;28.13;15.80;;;4.00;89.10;;;;;;4967408;28;20204;-63
2021/03/11 00:04:32;;;;;;;28.70;16.50;;;4.00;89.30;;;;;;4983514;28;20208;-61
2021/03/11 00:06:58;;;;;;;33.90;16.30;;;4.00;89.40;;;;;;4983456;28;20196;-61
2021/03/11 00:09:23;;;;;;;32.00;16.17;;;4.00;89.40;;;;;;4985529;28;21089;-61
2021/03/11 00:11:49;;;;;;;29.50;15.13;;;4.00;89.60;;;;;;4982304;28;20517;-61
2021/03/11 00:14:15;;;;;;;24.83;14.00;;;4.00;89.80;;;;;;4964884;28;20240;-59
2021/03/11 00:16:40;;;;;;;26.50;15.80;;;4.00;88.80;;;;;;4965724;28;20584;-63
2021/03/11 00:19:06;;;;;;;26.73;14.70;;;4.00;88.40;;;;;;4965313;28;20642;-61
2021/03/11 00:21:32;;;;;;;27.60;15.00;;;4.00;88.20;;;;;;4981436;28;20203;-61
2021/03/11 00:23:57;;;;;;;26.10;13.63;;;4.00;88.20;;;;;;4978685;28;20201;-60
2021/03/11 00:26:23;;;;;;;23.50;12.80;;;4.00;88.90;;;;;;4963679;28;20285;-61
2021/03/11 00:28:48;;;;;;;29.23;12.97;;;4.00;88.80;;;;;;4962399;28;20197;-61
2021/03/11 00:31:14;;;;;;;26.27;14.67;;;4.10;87.30;;;;;;4963123;28;22204;-61
2021/03/11 00:33:40;;;;;;;26.20;13.40;;;4.20;85.50;;;;;;4964495;28;20208;-61
2021/03/11 00:36:06;;;;;;;24.13;13.80;;;4.30;83.20;;;;;;4990154;28;20189;-61
2021/03/11 00:38:31;;;;;;;26.13;14.10;;;4.40;82.40;;;;;;4980929;28;20201;-62
2021/03/11 00:40:57;;;;;;;24.50;13.97;;;4.50;82.50;;;;;;5007367;28;21042;-63
2021/03/11 00:43:23;;;;;;;26.43;14.70;;;4.60;82.40;;;;;;5002133;28;20208;-61
2021/03/11 00:45:49;;;;;;;25.83;14.30;;;4.60;82.60;;;;;;4988090;28;20216;-62
2021/03/11 00:48:15;;;;;;;25.57;13.60;;;4.60;82.10;;;;;;5000920;28;20185;-62
2021/03/11 00:50:41;;;;;;;23.30;13.10;;;4.70;81.80;;;;;;4987736;28;20441;-61
2021/03/11 00:53:07;;;;;;;23.30;13.23;;;4.70;81.00;;;;;;5010335;28;20460;-61
2021/03/11 00:55:32;;;;;;;24.33;14.00;;;4.70;80.60;;;;;;4983111;28;20785;-61
2021/03/11 00:57:58;;;;;;;25.30;14.63;;;4.70;80.10;;;;;;4983147;28;20181;-62
2021/03/11 01:00:25;;;;;;;31.33;15.53;;;4.70;78.80;;;;;;4966104;28;20280;-61
2021/03/11 01:02:50;;;;;;;24.27;13.50;;;4.70;77.90;;;;;;4962762;28;20279;-61
2021/03/11 01:05:28;;;;;;;27.43;14.50;;;4.80;76.80;;;;;;4961764;28;20463;-60
2021/03/11 01:07:53;;;;;;;27.77;13.60;;;4.80;75.90;;;;;;4981455;28;20770;-61
2021/03/11 01:10:19;;;;;;;23.90;13.47;;;4.80;75.70;;;;;;4960975;28;20454;-61
2021/03/11 01:12:45;;;;;;;26.93;12.90;;;4.80;75.10;;;;;;4964175;28;20214;-63
2021/03/11 01:15:11;;;;;;;26.80;13.70;;;4.90;75.70;;;;;;4982171;28;20601;-61
2021/03/11 01:17:37;;;;;;;26.30;14.97;;;4.90;76.30;;;;;;4981781;28;20443;-61
2021/03/11 01:20:14;;;;;;;27.80;13.90;;;4.90;77.20;;;;;;4981448;28;22304;-61
2021/03/11 01:22:40;;;;;;;23.40;15.03;;;4.90;79.40;;;;;;4980198;28;20471;-61
2021/03/11 01:25:06;;;;;;;34.10;16.50;;;4.90;82.00;;;;;;4948393;28;20674;-60
2021/03/11 01:27:34;;;;;;;30.87;16.60;;;4.80;83.30;;;;;;4974119;28;20579;-60
2021/03/11 01:30:02;;;;;;;34.27;17.20;;;4.70;85.80;;;;;;4981090;28;20448;-61
2021/03/11 01:32:28;;;;;;;37.07;17.37;;;4.70;86.10;;;;;;4984554;28;20436;-60
2021/03/11 01:34:53;;;;;;;34.70;15.90;;;4.60;87.50;;;;;;4983761;28;20624;-61
2021/03/11 01:37:19;;;;;;;30.80;16.63;;;4.50;88.00;;;;;;4978079;28;20295;-60
2021/03/11 01:39:45;;;;;;;25.67;14.93;;;4.40;89.80;;;;;;4981944;28;20181;-61
2021/03/11 01:42:10;;;;;;;33.07;16.47;;;4.30;89.60;;;;;;4983675;28;20213;-61
2021/03/11 01:44:36;;;;;;;36.87;16.87;;;4.20;89.60;;;;;;4983733;28;20217;-60
2021/03/11 01:47:02;;;;;;;28.93;16.70;;;4.20;90.20;;;;;;4984219;28;20187;-60
2021/03/11 01:49:28;;;;;;;26.23;15.80;;;4.20;90.30;;;;;;4975903;28;20181;-61
2021/03/11 01:51:53;;;;;;;28.23;16.17;;;4.20;90.20;;;;;;4987908;28;20439;-60
2021/03/11 01:54:20;;;;;;;28.87;15.77;;;4.20;89.80;;;;;;4971426;28;20221;-60
2021/03/11 01:56:46;;;;;;;26.83;15.03;;;4.20;89.20;;;;;;4975612;28;20189;-60
2021/03/11 01:59:13;;;;;;;28.43;15.30;;;4.20;89.40;;;;;;4969625;28;20440;-61
2021/03/11 02:01:39;;;;;;;28.27;16.73;;;4.20;89.70;;;;;;4980855;28;20484;-61
2021/03/11 02:04:05;;;;;;;25.43;15.60;;;4.20;88.90;;;;;;4992135;28;20541;-61
2021/03/11 02:06:31;;;;;;;27.00;14.57;;;4.30;89.00;;;;;;4990362;28;20574;-61
2021/03/11 02:08:56;;;;;;;32.20;16.40;;;4.30;88.60;;;;;;4992147;28;20913;-60
2021/03/11 02:11:31;;;;;;;34.43;15.17;;;4.40;88.70;;;;;;4990564;28;20196;-61
2021/03/11 02:14:22;;;;;;;24.27;13.93;;;4.40;87.80;;;;;;4988981;28;20207;-60
2021/03/11 02:16:57;;;;;;;28.37;14.73;;;4.40;87.10;;;;;;4992228;28;20481;-61
2021/03/11 02:19:56;;;;;;;24.77;14.03;;;4.50;87.20;;;;;;4976490;28;20474;-60
2021/03/11 02:22:59;;;;;;;26.70;14.90;;;4.50;86.30;;;;;;4982190;28;20493;-60
2021/03/11 02:25:43;;;;;;;28.37;15.40;;;4.50;86.80;;;;;;4981875;28;20444;-60
2021/03/11 02:28:27;;;;;;;22.30;12.43;;;4.60;87.30;;;;;;4967475;28;20442;-60
2021/03/11 02:30:55;;;;;;;24.03;12.97;;;4.60;85.60;;;;;;4990010;28;21105;-60
2021/03/11 02:33:23;;;;;;;22.60;11.70;;;4.60;85.20;;;;;;4985701;28;20549;-60
2021/03/11 02:35:52;;;;;;;17.53;10.90;;;4.60;81.70;;;;;;4984350;28;20428;-60
2021/03/11 02:38:19;;;;;;;24.43;12.50;;;4.70;80.00;;;;;;4979593;28;20459;-60
2021/03/11 02:40:46;;;;;;;22.53;12.00;;;4.80;78.40;;;;;;4987340;28;20443;-60
2021/03/11 02:43:18;;;;;;;24.33;12.20;;;4.80;76.60;;;;;;4987998;28;20468;-60
2021/03/11 02:45:45;;;;;;;19.40;10.10;;;4.90;76.40;;;;;;4987035;28;20452;-61
2021/03/11 02:48:13;;;;;;;14.07;8.23;;;4.90;71.90;;;;;;4988469;28;20463;-61
2021/03/11 02:50:40;;;;;;;15.57;9.03;;;5.00;67.90;;;;;;4980553;28;20512;-60
2021/03/11 02:53:09;;;;;;;16.87;9.50;;;5.10;63.70;;;;;;4969362;28;20456;-60
2021/03/11 02:55:36;;;;;;;15.87;8.43;;;5.20;61.00;;;;;;4989242;28;20484;-60
2021/03/11 02:58:03;;;;;;;13.17;7.87;;;5.40;58.90;;;;;;4989957;28;20433;-60
2021/03/11 03:00:30;;;;;;;16.37;8.80;;;5.50;57.60;;;;;;4991311;28;20439;-60
2021/03/11 03:02:57;;;;;;;12.93;8.53;;;5.60;56.40;;;;;;4993604;28;20479;-61
2021/03/11 03:05:28;;;;;;;22.43;8.90;;;5.70;56.20;;;;;;4990755;28;20429;-61
2021/03/11 03:07:55;;;;;;;15.27;9.13;;;5.70;55.70;;;;;;4988161;28;20436;-61
2021/03/11 03:10:24;;;;;;;19.93;9.30;;;5.80;55.80;;;;;;4992294;28;20455;-61
2021/03/11 03:12:52;;;;;;;15.30;9.50;;;5.80;56.00;;;;;;4993157;28;20471;-61
2021/03/11 03:15:19;;;;;;;20.83;9.17;;;5.80;55.90;;;;;;4992625;28;20955;-60
2021/03/11 03:17:48;;;;;;;15.60;9.80;;;5.80;55.80;;;;;;4992210;28;20441;-61
2021/03/11 03:20:16;;;;;;;18.80;10.47;;;5.80;56.00;;;;;;4992469;28;20432;-60
2021/03/11 03:22:42;;;;;;;19.40;10.50;;;5.80;56.00;;;;;;4990516;28;21011;-61
2021/03/11 03:25:12;;;;;;;18.30;10.30;;;5.80;55.80;;;;;;4985636;28;20432;-60
2021/03/11 03:27:40;;;;;;;22.00;10.33;;;5.80;56.00;;;;;;4991018;28;20439;-61
2021/03/11 03:30:11;;;;;;;19.67;10.07;;;5.80;55.90;;;;;;4988395;28;20427;-60
2021/03/11 03:32:37;;;;;;;19.53;10.40;;;5.80;55.80;;;;;;4992214;28;20467;-61
2021/03/11 03:35:08;;;;;;;17.27;9.07;;;5.80;55.60;;;;;;4996412;28;20523;-62
2021/03/11 03:37:35;;;;;;;15.97;9.30;;;5.80;55.60;;;;;;4972760;28;20948;-60
2021/03/11 03:40:06;;;;;;;16.63;8.97;;;5.90;54.60;;;;;;4999204;28;20447;-60
2021/03/11 03:42:36;;;;;;;20.07;8.60;;;5.90;54.00;;;;;;4993733;28;20460;-60
2021/03/11 03:45:05;;;;;;;15.43;9.17;;;5.90;53.80;;;;;;4972587;28;20459;-60
2021/03/11 03:47:32;;;;;;;19.83;9.30;;;6.00;53.80;;;;;;4978013;28;20823;-64
2021/03/11 03:49:58;;;;;;;19.20;8.00;;;6.00;53.60;;;;;;4988856;28;20430;-61
2021/03/11 03:52:28;;;;;;;15.87;9.40;;;6.00;53.50;;;;;;4998274;28;20935;-60
2021/03/11 03:54:57;;;;;;;16.87;7.83;;;6.00;53.50;;;;;;4990037;28;20429;-61
2021/03/11 03:57:25;;;;;;;18.30;9.70;;;6.00;53.60;;;;;;4992014;28;20523;-60
2021/03/11 03:59:52;;;;;;;18.20;10.27;;;6.00;53.60;;;;;;4997327;28;20435;-60
2021/03/11 04:02:19;;;;;;;17.17;9.20;;;6.00;53.90;;;;;;4992065;28;20967;-61
2021/03/11 04:04:49;;;;;;;20.20;9.90;;;6.10;54.50;;;;;;5000735;28;20861;-61
2021/03/11 04:07:21;;;;;;;17.90;9.27;;;6.10;54.50;;;;;;4986363;28;20522;-61
2021/03/11 04:09:48;;;;;;;14.03;7.83;;;6.10;54.60;;;;;;4977388;28;20425;-60
2021/03/11 04:12:16;;;;;;;14.00;8.00;;;6.10;54.90;;;;;;4977064;28;20778;-60
2021/03/11 04:14:43;;;;;;;13.53;7.97;;;6.10;55.50;;;;;;4991453;28;20424;-61
2021/03/11 04:17:10;;;;;;;16.37;7.97;;;6.10;55.80;;;;;;4992958;28;20459;-60
2021/03/11 04:19:37;;;;;;;14.50;7.60;;;6.20;56.10;;;;;;4994862;28;20438;-60
2021/03/11 04:22:04;;;;;;;14.40;7.70;;;6.20;56.40;;;;;;4971216;28;20833;-60
2021/03/11 04:24:31;;;;;;;15.50;7.20;;;6.20;56.50;;;;;;4989677;28;20475;-60
2021/03/11 04:27:00;;;;;;;15.30;7.43;;;6.20;56.50;;;;;;4989800;28;20424;-60
2021/03/11 04:29:26;;;;;;;15.57;7.67;;;6.20;56.80;;;;;;4989533;28;20482;-60
2021/03/11 04:31:52;;;;;;;9.00;6.10;;;6.30;57.20;;;;;;4991630;28;20464;-61
2021/03/11 04:34:19;;;;;;;11.80;6.10;;;6.30;57.10;;;;;;4990115;28;20463;-60
2021/03/11 04:36:45;;;;;;;13.87;6.60;;;6.40;57.10;;;;;;4990835;28;20482;-61
2021/03/11 04:39:11;;;;;;;9.70;5.80;;;6.40;57.40;;;;;;4967557;28;20506;-60
2021/03/11 04:41:37;;;;;;;13.57;6.57;;;6.50;57.50;;;;;;4971007;28;20964;-61
2021/03/11 04:44:04;;;;;;;10.40;5.67;;;6.50;57.70;;;;;;4949526;28;20269;-60
2021/03/11 04:46:31;;;;;;;8.23;5.23;;;6.50;58.10;;;;;;4989226;28;20323;-60
2021/03/11 04:49:01;;;;;;;11.97;5.93;;;6.60;58.40;;;;;;4992335;28;20431;-61
2021/03/11 04:51:28;;;;;;;13.30;4.80;;;6.60;58.50;;;;;;4979296;28;20445;-62
2021/03/11 04:53:54;;;;;;;8.47;5.27;;;6.60;59.20;;;;;;4989072;28;20444;-60
2021/03/11 04:56:25;;;;;;;9.03;5.37;;;6.70;60.10;;;;;;4971533;28;20475;-61
2021/03/11 04:58:50;;;;;;;8.97;4.30;;;6.70;60.30;;;;;;4991312;28;20439;-61
2021/03/11 05:01:30;;;;;;;9.10;5.10;;;6.80;60.80;;;;;;4987084;28;20456;-59
2021/03/11 05:03:57;;;;;;;8.10;5.20;;;6.80;61.40;;;;;;4989826;28;20666;-60
2021/03/11 05:06:23;;;;;;;8.10;5.10;;;6.80;62.30;;;;;;4975222;28;20420;-61
2021/03/11 05:08:48;;;;;;;13.00;5.00;;;6.90;64.60;;;;;;4991261;28;20432;-61
2021/03/11 05:11:14;;;;;;;7.07;4.10;;;6.90;66.20;;;;;;4985536;28;20189;-61
2021/03/11 05:13:43;;;;;;;5.87;3.77;;;6.90;69.20;;;;;;4969424;28;20697;-60
2021/03/11 05:16:09;;;;;;;6.33;3.90;;;7.00;74.80;;;;;;4990931;28;20223;-61
2021/03/11 05:18:35;;;;;;;6.47;4.40;;;7.00;77.40;;;;;;4975001;28;20484;-61
2021/03/11 05:21:02;;;;;;;9.83;4.13;;;7.00;81.20;;;;;;4991887;28;20243;-61
2021/03/11 05:23:28;;;;;;;7.60;3.97;;;7.00;82.80;;;;;;4986866;28;20448;-61
2021/03/11 05:25:54;;;;;;;11.33;4.93;;;7.00;86.60;;;;;;4986966;28;20507;-60
2021/03/11 05:28:23;;;;;;;7.70;4.20;;;7.00;88.10;;;;;;4988229;28;20462;-60
2021/03/11 05:30:49;;;;;;;6.10;4.33;;;7.00;89.00;;;;;;4982001;28;20448;-62
2021/03/11 05:33:15;;;;;;;6.43;4.27;;;7.00;90.00;;;;;;4978475;28;20880;-60
2021/03/11 05:35:41;;;;;;;10.10;4.80;;;7.00;90.10;;;;;;4984483;28;20510;-61
2021/03/11 05:38:08;;;;;;;5.90;4.40;;;7.00;90.30;;;;;;4983595;28;20674;-60
2021/03/11 05:40:35;;;;;;;8.57;4.93;;;7.00;90.10;;;;;;4981980;28;20913;-60
2021/03/11 05:43:04;;;;;;;7.50;4.70;;;7.00;90.00;;;;;;4963697;28;20514;-60
2021/03/11 05:45:30;;;;;;;8.07;4.70;;;7.00;90.20;;;;;;4974823;28;20463;-60
2021/03/11 05:47:56;;;;;;;8.50;5.20;;;7.00;90.20;;;;;;4961541;28;20456;-59
2021/03/11 05:50:22;;;;;;;9.47;4.57;;;7.00;90.50;;;;;;4975787;28;20464;-61
2021/03/11 05:52:48;;;;;;;10.23;5.63;;;6.90;90.80;;;;;;4976756;28;20471;-62
2021/03/11 05:55:14;;;;;;;9.03;4.80;;;6.90;90.90;;;;;;4976041;28;20508;-62
2021/03/11 05:57:45;;;;;;;8.57;4.93;;;6.90;91.20;;;;;;4973883;28;20431;-61
2021/03/11 06:00:18;;;;;;;9.23;4.80;;;6.90;91.30;;;;;;4981501;28;20550;-59
2021/03/11 06:02:45;;;;;;;11.87;5.70;;;6.90;91.40;;;;;;4964699;28;20482;-61
2021/03/11 06:05:19;;;;;;;11.87;5.73;;;6.90;91.40;;;;;;4979703;28;20428;-62
2021/03/11 06:07:46;;;;;;;9.80;5.17;;;6.90;91.50;;;;;;4976185;28;20501;-61
2021/03/11 06:10:15;;;;;;;6.27;4.50;;;6.90;91.50;;;;;;4981534;28;20442;-62
2021/03/11 06:12:43;;;;;;;11.47;5.17;;;6.90;91.50;;;;;;4980095;28;21031;-61
2021/03/11 06:15:17;;;;;;;9.77;5.33;;;6.90;91.40;;;;;;4972471;28;20494;-63
2021/03/11 06:17:43;;;;;;;7.33;4.80;;;6.90;91.10;;;;;;4970053;28;20452;-60
2021/03/11 06:20:11;;;;;;;8.13;5.73;;;6.90;90.90;;;;;;4986033;28;20443;-60
2021/03/11 06:22:38;;;;;;;10.00;5.67;;;6.90;90.90;;;;;;4986793;28;20808;-62
2021/03/11 06:25:05;;;;;;;13.83;4.87;;;6.90;90.80;;;;;;4986871;28;20436;-62
2021/03/11 06:27:31;;;;;;;7.70;5.30;;;6.90;90.90;;;;;;4969833;28;20428;-61
2021/03/11 06:29:57;;;;;;;13.20;5.33;;;6.90;90.90;;;;;;4976362;28;20490;-62
2021/03/11 06:32:24;;;;;;;8.83;4.63;;;6.90;91.00;;;;;;4965212;28;20615;-62
2021/03/11 06:34:50;;;;;;;6.43;4.37;;;7.00;91.10;;;;;;4981179;28;20428;-63
2021/03/11 06:37:34;;;;;;;6.03;4.40;;;7.00;91.30;;;;;;4961359;28;20483;-62
2021/03/11 06:40:18;;;;;;;7.63;4.40;;;7.00;91.30;;;;;;4974588;28;20680;-61
2021/03/11 06:42:45;;;;;;;8.50;4.20;;;7.00;91.40;;;;;;4953800;28;20467;-62
2021/03/11 06:45:27;;;;;;;7.47;4.67;;;7.00;91.40;;;;;;4973105;28;20420;-62
2021/03/11 06:48:24;;;;;;;12.13;5.43;;;7.00;91.50;;;;;;4988257;28;20460;-62
2021/03/11 06:50:49;;;;;;;8.10;5.00;;;7.10;91.50;;;;;;4981221;28;20956;-63
2021/03/11 06:53:15;;;;;;;8.63;4.23;;;7.10;91.60;;;;;;4984173;28;20467;-63
2021/03/11 06:55:41;;;;;;;10.60;5.17;;;7.10;91.60;;;;;;4984237;28;20184;-63
2021/03/11 06:58:17;;;;;;;7.00;4.47;;;7.10;91.60;;;;;;4988290;28;20427;-62
2021/03/11 07:00:44;;;;;;;7.63;4.90;;;7.10;91.70;;;;;;4987521;28;20255;-63
2021/03/11 07:03:10;;;;;;;6.70;4.60;;;7.20;91.80;;;;;;4966258;28;20849;-62
2021/03/11 07:05:43;;;;;;;6.37;4.20;;;7.20;91.50;;;;;;4989207;28;20428;-61
2021/03/11 07:08:16;;;;;;;10.80;4.33;;;7.30;91.30;;;;;;4988701;28;20424;-63
2021/03/11 07:10:45;;;;;;;13.00;4.33;;;7.30;91.10;;;;;;4968222;28;20440;-62
2021/03/11 07:13:11;;;;;;;7.83;4.87;;;7.40;90.90;;;;;;4974875;28;20460;-61
2021/03/11 07:15:38;;;;;;;9.37;3.30;;;7.40;90.60;;;;;;4987713;28;20452;-63
2021/03/11 07:18:19;;;;;;;5.60;3.43;;;7.50;90.50;;;;;;4970130;28;20473;-62
2021/03/11 07:20:45;;;;;;;6.50;3.80;;;7.60;90.00;;;;;;4983618;28;21046;-63
2021/03/11 07:23:15;;;;;;;7.30;3.50;;;7.70;89.60;;;;;;4981159;28;20558;-62
2021/03/11 07:25:42;;;;;;;8.30;3.33;;;7.80;88.10;;;;;;4975930;28;20227;-61
2021/03/11 07:28:28;;;;;;;8.53;3.23;;;7.80;87.40;;;;;;4981533;28;20451;-62
2021/03/11 07:30:56;;;;;;;7.00;2.70;;;7.90;86.50;;;;;;4976972;28;20476;-62
2021/03/11 07:33:23;;;;;;;4.10;3.00;;;8.00;85.20;;;;;;4971801;28;20477;-61
2021/03/11 07:35:51;;;;;;;4.83;2.80;;;8.10;83.60;;;;;;4988171;28;20571;-62
2021/03/11 07:38:22;;;;;;;5.10;3.10;;;8.20;83.10;;;;;;4980778;28;20436;-62
2021/03/11 07:40:50;;;;;;;7.10;2.90;;;8.20;82.70;;;;;;4978378;28;20531;-61
2021/03/11 07:43:16;;;;;;;5.97;3.17;;;8.30;82.60;;;;;;4978999;28;20487;-63
2021/03/11 07:45:42;;;;;;;7.13;3.03;;;8.30;82.20;;;;;;4981636;28;20511;-61
2021/03/11 07:48:15;;;;;;;3.83;3.17;;;8.40;82.20;;;;;;4978120;28;20493;-64
2021/03/11 07:50:43;;;;;;;8.10;3.40;;;8.50;82.60;;;;;;4981638;28;20455;-61
2021/03/11 07:53:09;;;;;;;4.73;2.60;;;8.50;82.00;;;;;;4980408;28;20449;-62
2021/03/11 07:55:36;;;;;;;3.60;2.63;;;8.50;80.70;;;;;;4964548;28;20960;-62
2021/03/11 07:58:05;;;;;;;6.37;3.00;;;8.60;80.60;;;;;;4981322;28;20459;-61
2021/03/11 08:00:31;;;;;;;3.87;3.07;;;8.60;80.20;;;;;;4984956;28;20448;-62
2021/03/11 08:03:13;;;;;;;11.33;3.37;;;8.70;79.00;;;;;;4984849;28;20468;-62
2021/03/11 08:05:39;;;;;;;4.57;2.60;;;8.80;78.70;;;;;;4984887;28;20475;-64
2021/03/11 08:08:12;;;;;;;3.83;2.33;;;8.80;77.50;;;;;;4967023;28;21036;-62
2021/03/11 08:10:59;;;;;;;7.03;3.00;;;8.80;76.90;;;;;;4985832;28;20523;-61
2021/03/11 08:13:25;;;;;;;10.27;3.20;;;8.90;76.80;;;;;;4976011;28;20459;-61
2021/03/11 08:15:51;;;;;;;3.33;2.70;;;8.80;77.20;;;;;;4990702;28;20506;-64
2021/03/11 08:18:32;;;;;;;4.47;2.87;;;8.80;77.80;;;;;;4987463;28;20185;-63
2021/03/11 08:20:58;;;;;;;3.93;2.40;;;8.80;78.90;;;;;;4989746;28;20428;-62
2021/03/11 08:23:34;;;;;;;3.70;2.70;;;8.80;79.90;;;;;;4985860;28;21444;-61
2021/03/11 08:26:01;;;;;;;3.63;2.80;;;8.80;80.10;;;;;;4990325;28;20176;-61
2021/03/11 08:28:30;;;;;;;5.90;2.77;;;8.80;80.10;;;;;;4985826;28;20455;-63
2021/03/11 08:31:05;;;;;;;4.37;3.13;;;8.90;80.70;;;;;;4988764;28;20448;-61
2021/03/11 08:33:33;;;;;;;4.37;3.17;;;8.90;80.30;;;;;;4988691;28;20475;-61
2021/03/11 08:36:00;;;;;;;9.23;3.00;;;9.00;80.20;;;;;;4989959;28;20439;-62
2021/03/11 08:38:32;;;;;;;4.70;2.97;;;9.00;80.30;;;;;;4985897;28;20444;-62
2021/03/11 08:41:01;;;;;;;3.60;2.63;;;9.10;80.40;;;;;;4988927;28;20436;-62
2021/03/11 08:43:38;;;;;;;9.10;2.80;;;9.20;81.00;;;;;;4990639;28;20472;-61
2021/03/11 08:46:12;;;;;;;4.47;2.70;;;9.30;80.70;;;;;;4986864;28;20448;-61
2021/03/11 08:49:00;;;;;;;3.97;2.53;;;9.40;79.90;;;;;;4988661;28;20495;-61
2021/03/11 08:51:26;;;;;;;4.03;2.40;;;9.40;80.00;;;;;;4984779;28;20806;-62
2021/03/11 08:53:59;;;;;;;3.40;2.60;;;9.50;78.80;;;;;;4982510;28;20456;-61
2021/03/11 08:56:27;;;;;;;2.60;2.10;;;9.60;79.20;;;;;;4986629;28;20212;-63
2021/03/11 08:59:06;;;;;;;2.80;2.10;;;9.70;78.00;;;;;;4991606;28;20532;-61
2021/03/11 09:01:43;;;;;;;2.60;1.80;;;9.80;77.10;;;;;;4994752;28;20484;-62
2021/03/11 09:04:21;;;;;;;3.80;2.20;;;9.90;77.00;;;;;;4994591;28;20460;-64
2021/03/11 09:06:58;;;;;;;6.83;2.30;;;10.00;75.30;;;;;;4986454;28;20476;-61
2021/03/11 09:09:33;;;;;;;6.03;2.00;;;10.10;74.00;;;;;;4964970;28;20527;-62
2021/03/11 09:12:00;;;;;;;3.50;2.63;;;10.20;72.40;;;;;;4989536;28;20486;-61
2021/03/11 09:14:27;;;;;;;3.73;2.03;;;10.40;71.80;;;;;;4970991;28;20475;-61
2021/03/11 09:17:00;;;;;;;3.00;2.10;;;10.50;70.70;;;;;;4990006;28;20964;-60
2021/03/11 09:19:33;;;;;;;2.50;1.93;;;10.60;69.30;;;;;;4989086;28;20455;-61
2021/03/11 09:21:59;;;;;;;6.47;2.00;;;10.70;68.50;;;;;;4980674;28;20464;-62
2021/03/11 09:24:24;;;;;;;3.77;2.00;;;10.80;67.20;;;;;;4967094;28;20567;-62
2021/03/11 09:26:50;;;;;;;4.10;2.00;;;10.90;66.00;;;;;;4988596;28;20220;-62
2021/03/11 09:29:16;;;;;;;9.93;1.97;;;11.10;66.50;;;;;;4966631;28;20223;-62
2021/03/11 09:31:47;;;;;;;2.67;2.17;;;11.20;64.30;;;;;;4967982;28;20272;-62
2021/03/11 09:34:12;;;;;;;3.10;2.20;;;11.30;64.60;;;;;;4983132;28;20891;-62
2021/03/11 09:36:46;;;;;;;4.97;2.10;;;11.40;63.70;;;;;;4985528;28;20448;-61
2021/03/11 09:39:12;;;;;;;6.43;1.93;;;11.50;63.50;;;;;;4989895;28;20174;-61
2021/03/11 09:41:38;;;;;;;2.87;2.20;;;11.60;62.50;;;;;;4982287;28;20459;-62
2021/03/11 09:44:06;;;;;;;5.83;2.70;;;11.70;62.00;;;;;;4966487;28;20220;-63
2021/03/11 09:46:35;;;;;;;3.10;2.20;;;11.80;61.40;;;;;;4988623;28;20494;-63
2021/03/11 09:49:01;;;;;;;5.93;2.40;;;11.90;61.90;;;;;;4961813;28;20443;-62
2021/03/11 09:51:31;;;;;;;3.53;1.97;;;12.00;61.60;;;;;;4986343;28;20424;-64
2021/03/11 09:53:58;;;;;;;4.90;1.90;;;12.10;60.80;;;;;;4964776;28;20455;-65
2021/03/11 09:56:26;;;;;;;3.50;1.77;;;12.10;60.10;;;;;;4969229;28;20447;-66
2021/03/11 09:58:58;;;;;;;4.27;2.40;;;12.10;60.70;;;;;;4984779;28;20428;-64
2021/03/11 10:01:33;;;;;;;3.27;1.73;;;12.00;61.10;;;;;;4983402;28;21006;-65
2021/03/11 10:04:00;;;;;;;2.37;2.17;;;12.00;61.90;;;;;;4987321;28;20798;-64
2021/03/11 10:06:27;;;;;;;3.53;1.77;;;11.90;62.80;;;;;;4987271;28;20448;-64
2021/03/11 10:08:55;;;;;;;2.17;1.70;;;11.80;63.40;;;;;;4982734;28;20859;-64
2021/03/11 10:11:30;;;;;;;5.83;2.33;;;11.70;64.30;;;;;;4987611;28;20428;-62
2021/03/11 10:14:01;;;;;;;2.17;1.97;;;11.70;65.70;;;;;;4988279;28;20463;-63
2021/03/11 10:16:36;;;;;;;2.30;2.10;;;11.50;66.80;;;;;;4988339;28;20432;-64
2021/03/11 10:19:15;;;;;;;2.93;1.90;;;11.50;69.10;;;;;;4986117;28;21006;-65
2021/03/11 10:21:48;;;;;;;1.93;1.77;;;11.40;71.70;;;;;;4986204;28;20468;-64
2021/03/11 10:24:32;;;;;;;1.90;1.70;;;11.40;73.70;;;;;;4983811;28;20456;-62
2021/03/11 10:26:59;;;;;;;1.87;1.50;;;11.50;77.60;;;;;;4982159;28;20439;-61
2021/03/11 10:29:30;;;;;;;2.13;1.63;;;11.50;78.00;;;;;;4986170;28;20483;-60
2021/03/11 10:32:00;;;;;;;1.57;1.47;;;11.60;77.70;;;;;;4968611;28;20444;-62
2021/03/11 10:34:26;;;;;;;2.40;1.50;;;11.60;78.30;;;;;;4985059;28;20558;-62
2021/03/11 10:36:57;;;;;;;3.60;1.70;;;11.60;78.10;;;;;;4968630;28;20485;-62
2021/03/11 10:39:24;;;;;;;2.10;1.70;;;11.60;78.70;;;;;;4986341;28;20440;-64
2021/03/11 10:42:06;;;;;;;4.40;1.77;;;11.70;78.00;;;;;;4987025;28;20504;-63
2021/03/11 10:44:36;;;;;;;2.60;1.50;;;11.70;78.40;;;;;;4985621;28;20489;-62
2021/03/11 10:47:16;;;;;;;2.10;1.60;;;11.60;78.60;;;;;;4982544;28;20514;-62
2021/03/11 10:49:43;;;;;;;1.90;1.60;;;11.60;79.50;;;;;;4985104;28;20420;-63
2021/03/11 10:52:10;;;;;;;3.40;1.30;;;11.60;80.70;;;;;;4969465;28;20439;-62
2021/03/11 10:54:36;;;;;;;2.70;1.60;;;11.60;82.20;;;;;;4984385;28;20468;-63
2021/03/11 10:57:17;;;;;;;2.30;1.70;;;11.60;83.60;;;;;;4989644;28;20428;-63
2021/03/11 10:59:52;;;;;;;3.60;1.57;;;11.60;84.00;;;;;;4988212;28;20428;-61
2021/03/11 11:02:19;;;;;;;19.13;8.00;;;11.60;84.40;;;;;;4981879;28;21079;-61
2021/03/11 11:04:45;;;;;;;3.60;1.60;;;11.60;86.10;;;;;;4985447;28;20972;-62
2021/03/11 11:07:10;;;;;;;5.13;1.57;;;11.60;87.60;;;;;;4986113;28;20443;-63
2021/03/11 11:09:36;;;;;;;12.23;1.40;;;11.60;88.70;;;;;;4986323;28;20176;-62
2021/03/11 11:12:06;;;;;;;1.90;1.47;;;11.60;88.80;;;;;;4986680;28;20284;-61
2021/03/11 11:14:31;;;;;;;1.97;1.30;;;11.60;88.70;;;;;;4989850;28;20197;-61
2021/03/11 11:16:57;;;;;;;2.50;1.37;;;11.70;89.40;;;;;;4977138;28;20428;-62
2021/03/11 11:19:23;;;;;;;1.77;1.50;;;11.70;89.70;;;;;;5001142;28;20216;-63
2021/03/11 11:21:48;;;;;;;7.20;2.20;;;11.70;89.20;;;;;;4984449;28;20201;-64
2021/03/11 11:24:14;;;;;;;1.67;1.57;;;11.70;89.50;;;;;;5007529;28;20213;-64
2021/03/11 11:26:40;;;;;;;2.97;1.60;;;11.70;89.30;;;;;;5046627;23;20432;-58
2021/03/11 11:29:05;;;;;;;5.23;1.20;;;11.70;89.90;;;;;;5007551;28;20250;-58
2021/03/11 11:31:34;;;;;;;5.20;1.77;;;11.70;89.60;;;;;;5006007;28;20185;-63
2021/03/11 11:34:00;;;;;;;6.87;2.63;;;11.60;89.50;;;;;;5008632;28;20188;-59
2021/03/11 11:36:33;;;;;;;2.63;1.67;;;11.70;89.60;;;;;;5012066;28;20435;-58
2021/03/11 11:38:59;;;;;;;1.50;1.40;;;11.70;89.70;;;;;;5014501;28;20251;-59
2021/03/11 11:41:25;;;;;;;2.00;1.90;;;11.70;89.20;;;;;;5015889;28;20558;-55
2021/03/11 11:43:50;;;;;;;2.13;1.90;;;11.70;88.90;;;;;;4996507;28;20199;-55
2021/03/11 11:46:16;;;;;;;2.20;1.70;;;11.70;88.90;;;;;;5009740;28;20193;-54
2021/03/11 11:48:42;;;;;;;2.03;1.70;;;11.70;88.90;;;;;;4989267;28;20248;-57
2021/03/11 11:51:07;;;;;;;8.33;2.30;;;11.60;88.80;;;;;;5009567;28;20200;-58
2021/03/11 11:53:33;;;;;;;1.70;1.60;;;11.60;88.70;;;;;;4977417;28;20184;-57
2021/03/11 11:55:59;;;;;;;2.50;1.77;;;11.60;88.80;;;;;;5017402;28;20248;-55
2021/03/11 11:58:24;;;;;;;1.83;1.60;;;11.60;89.30;;;;;;5008051;28;20276;-56
2021/03/11 12:00:50;;;;;;;13.00;1.60;;;11.60;89.80;;;;;;5008689;28;20279;-57
2021/03/11 12:03:16;;;;;;;2.80;1.60;;;11.60;90.00;;;;;;5010631;28;20220;-58
2021/03/11 12:05:42;;;;;;;2.77;1.97;;;11.60;89.60;;;;;;5008879;28;20499;-57
2021/03/11 12:08:08;;;;;;;2.60;1.73;;;11.60;89.70;;;;;;5010086;28;20311;-60
2021/03/11 12:10:34;;;;;;;2.17;1.87;;;11.60;89.60;;;;;;5009716;28;20257;-58
2021/03/11 12:13:00;;;;;;;4.40;1.47;;;11.60;89.20;;;;;;5015346;28;20435;-57
2021/03/11 12:15:27;;;;;;;2.93;1.83;;;11.60;89.20;;;;;;5009903;28;20503;-61
2021/03/11 12:17:52;;;;;;;2.10;1.47;;;11.60;89.60;;;;;;5006297;28;20487;-59
2021/03/11 12:20:18;;;;;;;3.43;1.33;;;11.60;90.10;;;;;;5008864;28;20843;-61
2021/03/11 12:22:44;;;;;;;5.20;1.53;;;11.60;90.20;;;;;;5006263;28;20279;-57
2021/03/11 12:25:10;;;;;;;2.77;1.67;;;11.70;90.20;;;;;;5007039;28;20169;-58
2021/03/11 12:27:36;;;;;;;1.97;1.77;;;11.70;90.10;;;;;;4997550;28;20281;-58
2021/03/11 12:30:03;;;;;;;2.57;1.90;;;11.80;90.10;;;;;;5002790;28;20424;-63
2021/03/11 12:32:29;;;;;;;9.73;1.90;;;11.80;89.70;;;;;;5009974;28;20189;-60
2021/03/11 12:34:54;;;;;;;1.47;1.37;;;11.90;89.50;;;;;;5011564;28;20546;-59
2021/03/11 12:37:20;;;;;;;1.63;1.40;;;11.90;88.30;;;;;;5013357;28;20630;-59
2021/03/11 12:39:46;;;;;;;1.60;1.50;;;12.00;88.30;;;;;;4994027;28;20192;-59
2021/03/11 12:42:11;;;;;;;1.50;1.40;;;12.00;89.20;;;;;;5004834;28;20302;-59
2021/03/11 12:44:37;;;;;;;1.83;1.57;;;12.00;89.50;;;;;;5004231;28;20284;-59
2021/03/11 12:47:03;;;;;;;1.60;1.30;;;12.00;90.00;;;;;;5009293;28;20273;-60
2021/03/11 12:49:30;;;;;;;2.30;1.30;;;12.00;90.10;;;;;;4991817;28;20807;-60
2021/03/11 12:51:55;;;;;;;4.67;1.30;;;12.00;90.30;;;;;;5006688;28;20489;-61
2021/03/11 12:54:21;;;;;;;1.83;1.50;;;12.00;90.30;;;;;;5009090;28;20448;-59
2021/03/11 12:56:47;;;;;;;1.53;1.37;;;12.00;90.40;;;;;;5000467;28;20232;-58